createdAt,value
2022-09-01T00:01:45.207Z,99002.81
2022-09-01T00:04:13.477Z,99006.03
2022-09-01T00:06:41.020Z,99000.63
2022-09-01T00:09:09.155Z,99004.84
2022-09-01T00:11:35.879Z,99003.94
2022-09-01T00:14:02.224Z,98997.16
2022-09-01T00:16:29.346Z,99000.31
2022-09-01T00:18:55.810Z,99002.69
2022-09-01T00:21:24.987Z,99001.69
2022-09-01T00:23:51.329Z,98999.81
2022-09-01T00:26:17.696Z,99004.59
2022-09-01T00:28:43.995Z,98997.00
2022-09-01T00:31:11.168Z,99000.00
2022-09-01T00:33:38.066Z,99001.38
2022-09-01T00:36:05.469Z,99000.88
2022-09-01T00:38:32.697Z,98997.75
2022-09-01T00:41:00.717Z,99001.19
2022-09-01T00:43:46.828Z,98995.31
2022-09-01T00:46:15.278Z,98994.63
2022-09-01T00:48:48.831Z,98989.13
2022-09-01T00:51:15.751Z,98989.44
2022-09-01T00:53:43.860Z,98985.72
2022-09-01T00:56:10.301Z,98993.50
2022-09-01T00:58:37.793Z,98978.97
2022-09-01T01:01:05.777Z,98988.72
2022-09-01T01:03:32.924Z,98993.50
2022-09-01T01:06:01.400Z,98993.81
2022-09-01T01:08:33.919Z,98992.09
2022-09-01T01:11:04.719Z,98991.75
2022-09-01T01:13:36.037Z,98986.66
2022-09-01T01:16:04.009Z,98987.75
2022-09-01T01:18:30.326Z,98990.38
2022-09-01T01:21:20.966Z,98988.66
2022-09-01T01:23:57.720Z,98989.72
2022-09-01T01:26:24.105Z,98987.75
2022-09-01T01:28:54.999Z,98989.25
2022-09-01T01:31:23.132Z,98986.03
2022-09-01T01:33:51.293Z,98984.16
2022-09-01T01:36:19.710Z,98980.69
2022-09-01T01:38:48.266Z,98989.94
2022-09-01T01:41:15.851Z,98986.81
2022-09-01T01:43:42.544Z,98982.06
2022-09-01T01:46:09.630Z,98983.47
2022-09-01T01:48:37.836Z,98978.84
2022-09-01T01:51:04.845Z,98979.41
2022-09-01T01:53:32.502Z,98978.94
2022-09-01T01:56:00.073Z,98979.28
2022-09-01T01:58:28.830Z,98976.28
2022-09-01T02:00:55.872Z,98975.91
2022-09-01T02:03:25.042Z,98977.31
2022-09-01T02:05:52.252Z,98977.84
2022-09-01T02:08:21.041Z,98966.34
2022-09-01T02:10:49.097Z,98975.84
2022-09-01T02:13:16.935Z,98978.38
2022-09-01T02:15:45.573Z,98976.97
2022-09-01T02:18:14.298Z,98967.78
2022-09-01T02:20:41.773Z,98970.63
2022-09-01T02:23:11.751Z,98970.38
2022-09-01T02:25:53.916Z,98968.44
2022-09-01T02:28:27.754Z,98962.91
2022-09-01T02:30:57.912Z,98962.91
2022-09-01T02:33:25.415Z,98970.97
2022-09-01T02:35:53.897Z,98969.44
2022-09-01T02:38:21.065Z,98965.28
2022-09-01T02:40:48.247Z,98967.47
2022-09-01T02:43:19.528Z,98969.75
2022-09-01T02:45:47.014Z,98970.06
2022-09-01T02:48:14.211Z,98966.78
2022-09-01T02:50:41.899Z,98970.72
2022-09-01T02:53:10.178Z,98968.19
2022-09-01T02:55:37.173Z,98965.63
2022-09-01T02:58:03.521Z,98963.75
2022-09-01T03:00:31.410Z,98965.97
2022-09-01T03:02:58.829Z,98961.63
2022-09-01T03:05:27.047Z,98964.38
2022-09-01T03:07:56.555Z,98970.19
2022-09-01T03:10:35.523Z,98963.78
2022-09-01T03:13:11.576Z,98963.97
2022-09-01T03:15:38.553Z,98962.50
2022-09-01T03:18:05.715Z,98962.66
2022-09-01T03:20:34.103Z,98958.78
2022-09-01T03:23:04.995Z,98960.25
2022-09-01T03:25:32.226Z,98963.22
2022-09-01T03:27:59.687Z,98954.66
2022-09-01T03:30:26.838Z,98956.72
2022-09-01T03:32:53.149Z,98957.88
2022-09-01T03:35:19.507Z,98959.38
2022-09-01T03:37:45.827Z,98954.59
2022-09-01T03:40:12.736Z,98955.34
2022-09-01T03:42:39.885Z,98951.56
2022-09-01T03:45:09.248Z,98959.75
2022-09-01T03:47:40.412Z,98955.19
2022-09-01T03:50:20.220Z,98953.59
2022-09-01T03:52:56.747Z,98952.84
2022-09-01T03:55:26.764Z,98950.38
2022-09-01T03:57:57.967Z,98951.38
2022-09-01T04:00:25.403Z,98953.09
2022-09-01T04:02:56.832Z,98949.63
2022-09-01T04:05:25.136Z,98946.94
2022-09-01T04:07:51.569Z,98954.16
2022-09-01T04:10:18.593Z,98965.81
2022-09-01T04:12:45.401Z,98952.19
2022-09-01T04:15:12.588Z,98954.44
2022-09-01T04:17:57.493Z,98960.72
2022-09-01T04:20:24.049Z,98960.72
2022-09-01T04:22:51.218Z,98962.38
2022-09-01T04:25:23.021Z,98958.19
2022-09-01T04:27:50.156Z,98956.41
2022-09-01T04:30:16.825Z,98953.31
2022-09-01T04:32:46.747Z,98959.41
2022-09-01T04:35:16.929Z,98961.31
2022-09-01T04:37:43.596Z,98966.09
2022-09-01T04:40:10.325Z,98965.44
2022-09-01T04:42:36.646Z,98958.50
2022-09-01T04:45:10.533Z,98959.22
2022-09-01T04:47:41.801Z,98964.25
2022-09-01T04:50:14.905Z,98964.09
2022-09-01T04:52:44.980Z,98973.16
2022-09-01T04:55:17.405Z,98960.47
2022-09-01T04:57:47.717Z,98972.97
2022-09-01T05:00:22.426Z,98971.13
2022-09-01T05:02:53.264Z,98981.25
2022-09-01T05:05:20.913Z,98967.69
2022-09-01T05:07:50.999Z,98968.44
2022-09-01T05:10:18.606Z,98971.53
2022-09-01T05:12:46.043Z,98966.81
2022-09-01T05:15:13.615Z,98968.56
2022-09-01T05:17:40.439Z,98978.03
2022-09-01T05:20:07.706Z,98975.22
2022-09-01T05:22:34.240Z,98975.28
2022-09-01T05:25:11.711Z,98978.94
2022-09-01T05:27:39.811Z,98971.56
2022-09-01T05:30:08.600Z,98975.91
2022-09-01T05:32:37.657Z,98976.38
2022-09-01T05:35:08.399Z,98978.66
2022-09-01T05:37:37.389Z,98984.09
2022-09-01T05:40:05.910Z,98981.28
2022-09-01T05:42:32.778Z,98978.00
2022-09-01T05:45:00.190Z,98987.50
2022-09-01T05:47:26.531Z,98982.22
2022-09-01T05:49:53.801Z,98978.75
2022-09-01T05:52:26.017Z,98982.03
2022-09-01T05:54:52.714Z,98989.56
2022-09-01T05:57:33.897Z,98984.66
2022-09-01T06:00:02.213Z,98977.78
2022-09-01T06:02:28.791Z,98981.03
2022-09-01T06:04:56.929Z,98985.81
2022-09-01T06:07:25.374Z,98982.97
2022-09-01T06:09:53.763Z,98989.63
2022-09-01T06:12:23.133Z,98995.06
2022-09-01T06:14:50.532Z,98988.63
2022-09-01T06:17:19.517Z,98991.06
2022-09-01T06:19:46.772Z,98995.88
2022-09-01T06:22:13.132Z,98988.44
2022-09-01T06:24:40.935Z,98993.47
2022-09-01T06:27:10.525Z,98997.38
2022-09-01T06:29:39.760Z,98995.03
2022-09-01T06:32:09.765Z,99005.94
2022-09-01T06:34:38.655Z,98992.75
2022-09-01T06:37:04.974Z,98990.63
2022-09-01T06:39:31.764Z,98996.25
2022-09-01T06:41:59.104Z,99001.91
2022-09-01T06:44:25.429Z,98989.47
2022-09-01T06:46:52.592Z,99004.31
2022-09-01T06:49:21.316Z,98995.38
2022-09-01T06:51:51.745Z,99004.44
2022-09-01T06:54:21.040Z,98996.78
2022-09-01T06:56:51.412Z,99004.16
2022-09-01T06:59:19.293Z,99007.31
2022-09-01T07:01:45.959Z,99007.25
2022-09-01T07:04:13.247Z,99004.94
2022-09-01T07:09:47.401Z,99007.25
2022-09-01T07:12:28.923Z,99015.75
2022-09-01T07:17:43.760Z,99018.34
2022-09-01T07:20:27.130Z,99028.34
2022-09-01T07:23:10.185Z,99016.81
2022-09-01T07:26:01.237Z,99007.47
2022-09-01T07:28:36.009Z,99008.72
2022-09-01T07:34:37.624Z,99023.00
2022-09-01T07:45:27.329Z,99023.72
2022-09-01T07:47:54.856Z,99026.91
2022-09-01T07:51:33.985Z,99025.91
2022-09-01T07:53:11.326Z,99023.38
2022-09-01T07:55:41.496Z,99027.97
2022-09-01T07:58:10.453Z,99028.94
2022-09-01T08:00:37.176Z,99027.63
2022-09-01T08:03:03.711Z,99028.06
2022-09-01T08:05:31.410Z,99026.34
2022-09-01T08:07:57.983Z,99031.66
2022-09-01T08:10:24.373Z,99024.75
2022-09-01T08:12:58.466Z,99031.47
2022-09-01T08:16:06.421Z,99027.56
2022-09-01T08:18:14.302Z,99034.28
2022-09-01T08:20:45.377Z,99030.84
2022-09-01T08:23:13.289Z,99038.72
2022-09-01T08:25:39.827Z,99029.94
2022-09-01T08:28:06.153Z,99038.78
2022-09-01T08:30:32.614Z,99035.81
2022-09-01T08:33:10.133Z,99039.91
2022-09-01T08:35:38.389Z,99043.28
2022-09-01T08:38:04.710Z,99041.91
2022-09-01T08:40:31.080Z,99035.69
2022-09-01T08:43:16.551Z,99046.31
2022-09-01T08:45:48.159Z,99040.41
2022-09-01T08:51:15.031Z,99038.25
2022-09-01T08:53:49.934Z,99042.34
2022-09-01T08:56:17.274Z,99035.72
2022-09-01T08:58:44.055Z,99043.06
2022-09-01T09:01:36.091Z,99038.63
2022-09-01T09:04:20.485Z,99041.56
2022-09-01T09:06:53.469Z,99040.16
2022-09-01T09:09:32.433Z,99037.91
2022-09-01T09:12:18.230Z,99040.91
2022-09-01T09:15:02.322Z,99043.50
2022-09-01T09:17:31.057Z,99040.19
2022-09-01T09:19:57.463Z,99043.47
2022-09-01T09:22:23.829Z,99044.56
2022-09-01T09:24:52.364Z,99040.19
2022-09-01T09:27:20.355Z,99044.56
2022-09-01T09:29:47.531Z,99030.22
2022-09-01T09:32:51.735Z,99031.34
2022-09-01T09:35:16.934Z,99039.03
2022-09-01T09:37:43.273Z,99034.75
2022-09-01T09:40:18.189Z,99029.13
2022-09-01T09:42:53.732Z,99037.28
2022-09-01T09:45:23.204Z,99035.06
2022-09-01T09:47:49.659Z,99032.41
2022-09-01T09:50:15.982Z,99036.59
2022-09-01T09:52:44.514Z,99025.28
2022-09-01T09:55:28.238Z,99031.41
2022-09-01T09:57:57.937Z,99029.63
2022-09-01T10:00:27.154Z,99031.25
2022-09-01T10:03:08.790Z,99030.22
2022-09-01T10:05:42.795Z,99027.56
2022-09-01T10:08:15.720Z,99028.00
2022-09-01T10:10:42.205Z,99022.19
2022-09-01T10:13:13.975Z,99021.97
2022-09-01T10:15:43.646Z,99024.00
2022-09-01T10:18:28.788Z,99021.38
2022-09-01T10:21:00.712Z,99020.72
2022-09-01T10:23:31.114Z,99025.81
2022-09-01T10:26:01.006Z,99026.69
2022-09-01T10:28:31.034Z,99025.63
2022-09-01T10:30:59.044Z,99029.47
2022-09-01T10:33:25.631Z,99022.75
2022-09-01T10:35:53.204Z,99023.25
2022-09-01T10:38:25.995Z,99022.22
2022-09-01T10:41:14.197Z,99019.81
2022-09-01T10:43:45.405Z,99023.22
2022-09-01T10:46:15.690Z,99014.22
2022-09-01T10:48:55.424Z,99016.34
2022-09-01T10:51:36.337Z,99022.63
2022-09-01T10:54:05.723Z,99016.75
2022-09-01T10:56:43.689Z,99018.38
2022-09-01T10:59:43.497Z,99018.56
2022-09-01T11:02:35.351Z,99011.56
2022-09-01T11:05:12.626Z,99012.75
2022-09-01T11:08:01.572Z,99010.50
2022-09-01T11:12:29.212Z,99001.22
2022-09-01T11:17:49.847Z,99008.72
2022-09-01T11:23:54.413Z,98994.47
2022-09-01T11:26:35.948Z,98988.25
2022-09-01T11:29:05.883Z,98991.09
2022-09-01T11:31:38.293Z,98989.06
2022-09-01T11:34:21.545Z,98980.84
2022-09-01T11:37:13.370Z,98993.88
2022-09-01T11:40:25.404Z,98984.56
2022-09-01T11:43:08.087Z,98973.28
2022-09-01T11:48:58.777Z,98976.47
2022-09-01T11:52:17.061Z,98975.34
2022-09-01T11:54:46.639Z,98978.13
2022-09-01T11:57:28.146Z,98988.31
2022-09-01T11:59:54.852Z,98983.41
2022-09-01T12:02:25.319Z,98989.69
2022-09-01T12:04:54.481Z,98993.25
2022-09-01T12:07:46.922Z,98991.50
2022-09-01T12:10:15.416Z,98988.03
2022-09-01T12:12:41.753Z,98985.16
2022-09-01T12:15:18.862Z,98995.44
2022-09-01T12:17:45.896Z,98991.91
2022-09-01T12:20:29.512Z,98989.06
2022-09-01T12:22:56.752Z,98990.63
2022-09-01T12:25:30.987Z,98990.28
2022-09-01T12:27:59.205Z,98994.63
2022-09-01T12:30:26.051Z,98987.91
2022-09-01T12:33:22.856Z,98985.53
2022-09-01T12:35:39.925Z,98983.13
2022-09-01T12:38:25.197Z,98979.94
2022-09-01T12:40:53.244Z,98982.91
2022-09-01T12:43:31.760Z,98982.31
2022-09-01T12:46:02.518Z,98983.97
2022-09-01T12:48:31.508Z,98978.03
2022-09-01T12:51:00.538Z,98980.34
2022-09-01T12:53:30.546Z,98980.75
2022-09-01T12:55:59.806Z,98978.53
2022-09-01T12:58:27.257Z,98972.81
2022-09-01T13:00:56.206Z,98969.44
2022-09-01T13:03:23.647Z,98970.06
2022-09-01T13:05:54.701Z,98974.94
2022-09-01T13:08:22.604Z,98964.28
2022-09-01T13:11:15.498Z,98970.06
2022-09-01T13:13:42.491Z,98962.81
2022-09-01T13:16:18.195Z,98958.88
2022-09-01T13:21:31.514Z,98955.69
2022-09-01T13:24:01.346Z,98950.84
2022-09-01T13:26:29.190Z,98953.03
2022-09-01T13:28:55.516Z,98951.56
2022-09-01T13:31:29.327Z,98945.56
2022-09-01T13:34:21.712Z,98945.25
2022-09-01T13:36:45.386Z,98943.91
2022-09-01T13:39:15.492Z,98944.22
2022-09-01T13:41:42.402Z,98945.69
2022-09-01T13:44:10.436Z,98944.13
2022-09-01T13:46:59.071Z,98948.84
2022-09-01T13:52:10.341Z,98945.97
2022-09-01T13:54:36.842Z,98940.50
2022-09-01T13:57:03.243Z,98947.75
2022-09-01T13:59:30.291Z,98947.59
2022-09-01T14:01:56.649Z,98943.78
2022-09-01T14:04:23.136Z,98941.84
2022-09-01T14:06:49.585Z,98946.28
2022-09-01T14:09:17.741Z,98947.38
2022-09-01T14:11:44.190Z,98943.06
2022-09-01T14:14:10.665Z,98951.97
2022-09-01T14:16:37.308Z,98947.50
2022-09-01T14:19:04.045Z,98947.84
2022-09-01T14:21:30.977Z,98947.72
2022-09-01T14:23:57.714Z,98943.97
2022-09-01T14:26:27.163Z,98941.13
2022-09-01T14:28:55.093Z,98936.28
2022-09-01T14:31:21.651Z,98936.66
2022-09-01T14:33:49.103Z,98941.44
2022-09-01T14:36:22.948Z,98947.31
2022-09-01T14:38:49.702Z,98937.78
2022-09-01T14:41:17.904Z,98939.72
2022-09-01T14:43:44.240Z,98935.56
2022-09-01T14:46:10.875Z,98935.50
2022-09-01T14:48:38.059Z,98933.66
2022-09-01T14:51:04.483Z,98937.69
2022-09-01T14:53:31.296Z,98928.50
2022-09-01T14:55:58.505Z,98929.25
2022-09-01T14:58:26.518Z,98931.50
2022-09-01T15:01:00.386Z,98930.38
2022-09-01T15:03:34.626Z,98934.34
2022-09-01T15:06:00.959Z,98921.84
2022-09-01T15:08:27.271Z,98924.38
2022-09-01T15:10:53.680Z,98925.53
2022-09-01T15:13:20.081Z,98927.84
2022-09-01T15:15:46.873Z,98923.88
2022-09-01T15:18:13.425Z,98927.16
2022-09-01T15:20:46.613Z,98929.03
2022-09-01T15:23:14.495Z,98925.25
2022-09-01T15:25:40.871Z,98929.09
2022-09-01T15:28:07.217Z,98937.22
2022-09-01T15:30:33.715Z,98933.94
2022-09-01T15:33:00.039Z,98936.13
2022-09-01T15:35:27.359Z,98932.16
2022-09-01T15:37:53.769Z,98941.06
2022-09-01T15:40:20.513Z,98937.34
2022-09-01T15:42:46.978Z,98940.75
2022-09-01T15:45:14.969Z,98942.97
2022-09-01T15:47:45.627Z,98938.47
2022-09-01T15:50:21.037Z,98940.75
2022-09-01T15:52:59.694Z,98937.75
2022-09-01T15:55:27.929Z,98937.41
2022-09-01T15:57:55.391Z,98937.06
2022-09-01T16:00:23.204Z,98935.22
2022-09-01T16:02:51.045Z,98932.31
2022-09-01T16:05:17.880Z,98933.38
2022-09-01T16:07:44.254Z,98934.09
2022-09-01T16:10:12.097Z,98930.09
2022-09-01T16:12:46.573Z,98935.59
2022-09-01T16:15:14.407Z,98920.94
2022-09-01T16:18:00.059Z,98926.75
2022-09-01T16:20:30.385Z,98922.66
2022-09-01T16:22:58.208Z,98924.88
2022-09-01T16:25:27.319Z,98924.56
2022-09-01T16:27:55.478Z,98916.13
2022-09-01T16:30:23.830Z,98923.81
2022-09-01T16:32:50.291Z,98925.28
2022-09-01T16:35:19.097Z,98917.56
2022-09-01T16:37:56.627Z,98916.16
2022-09-01T16:40:43.615Z,98908.41
2022-09-01T16:43:13.247Z,98914.25
2022-09-01T16:46:04.298Z,98909.84
2022-09-01T16:48:47.223Z,98915.81
2022-09-01T16:51:27.339Z,98909.88
2022-09-01T16:54:20.904Z,98913.59
2022-09-01T16:56:52.992Z,98919.47
2022-09-01T16:59:22.166Z,98919.13
2022-09-01T17:01:58.682Z,98917.31
2022-09-01T17:04:28.188Z,98918.06
2022-09-01T17:07:02.070Z,98917.72
2022-09-01T17:09:28.405Z,98914.06
2022-09-01T17:12:19.978Z,98921.78
2022-09-01T17:14:49.510Z,98914.81
2022-09-01T17:17:19.708Z,98919.22
2022-09-01T17:19:52.073Z,98909.25
2022-09-01T17:22:19.123Z,98915.16
2022-09-01T17:24:48.815Z,98913.34
2022-09-01T17:27:25.418Z,98929.50
2022-09-01T17:29:53.565Z,98923.28
2022-09-01T17:32:39.765Z,98926.22
2022-09-01T17:35:13.237Z,98929.16
2022-09-01T17:37:45.844Z,98928.81
2022-09-01T17:40:19.492Z,98932.84
2022-09-01T17:42:45.922Z,98926.94
2022-09-01T17:45:15.344Z,98936.16
2022-09-01T17:47:46.882Z,98933.19
2022-09-01T17:50:33.087Z,98946.47
2022-09-01T17:53:02.346Z,98935.75
2022-09-01T17:55:56.616Z,98934.69
2022-09-01T17:58:35.454Z,98935.78
2022-09-01T18:01:07.228Z,98939.09
2022-09-01T18:03:34.434Z,98945.34
2022-09-01T18:06:06.774Z,98944.97
2022-09-01T18:08:40.975Z,98943.13
2022-09-01T18:11:11.456Z,98953.38
2022-09-01T18:13:56.103Z,98942.72
2022-09-01T18:16:28.188Z,98953.75
2022-09-01T18:18:57.319Z,98955.59
2022-09-01T18:21:26.296Z,98951.91
2022-09-01T18:23:55.486Z,98957.78
2022-09-01T18:26:32.293Z,98961.09
2022-09-01T18:29:02.828Z,98946.75
2022-09-01T18:31:29.169Z,98962.19
2022-09-01T18:34:04.703Z,98959.94
2022-09-01T18:36:49.957Z,98957.69
2022-09-01T18:39:16.258Z,98962.81
2022-09-01T18:41:54.594Z,98967.94
2022-09-01T18:44:26.577Z,98964.63
2022-09-01T18:46:57.295Z,98977.13
2022-09-01T18:49:27.912Z,98968.22
2022-09-01T18:52:04.373Z,98972.19
2022-09-01T18:54:37.403Z,98971.78
2022-09-01T18:57:05.511Z,98976.94
2022-09-01T18:59:38.640Z,98976.50
2022-09-01T19:02:16.063Z,98983.78
2022-09-01T19:04:44.016Z,98980.09
2022-09-01T19:07:10.341Z,98980.00
2022-09-01T19:09:42.520Z,98978.13
2022-09-01T19:12:30.603Z,98991.31
2022-09-01T19:15:06.455Z,98991.28
2022-09-01T19:18:04.494Z,98988.72
2022-09-01T19:20:40.727Z,98986.78
2022-09-01T19:23:10.790Z,98991.53
2022-09-01T19:25:39.638Z,98986.63
2022-09-01T19:28:09.289Z,98993.22
2022-09-01T19:30:39.795Z,98980.69
2022-09-01T19:33:06.539Z,98992.03
2022-09-01T19:35:34.386Z,98986.38
2022-09-01T19:38:05.075Z,98985.63
2022-09-01T19:43:05.728Z,98980.72
2022-09-01T19:45:43.913Z,98992.78
2022-09-01T19:48:15.070Z,98982.13
2022-09-01T19:50:54.472Z,98985.09
2022-09-01T19:53:28.116Z,98987.25
2022-09-01T19:55:57.944Z,98984.63
2022-09-01T19:58:26.697Z,98988.63
2022-09-01T20:00:55.780Z,98984.78
2022-09-01T20:03:26.818Z,98981.78
2022-09-01T20:05:56.428Z,98986.19
2022-09-01T20:08:29.438Z,98992.84
2022-09-01T20:11:13.438Z,98987.16
2022-09-01T20:14:01.691Z,98989.88
2022-09-01T20:16:40.102Z,98995.22
2022-09-01T20:19:18.372Z,98996.38
2022-09-01T20:21:45.770Z,99001.00
2022-09-01T20:24:30.452Z,98997.75
2022-09-01T20:26:59.646Z,98995.13
2022-09-01T20:29:44.784Z,98996.25
2022-09-01T20:32:12.261Z,98996.84
2022-09-01T20:34:38.609Z,98996.28
2022-09-01T20:37:23.790Z,99000.72
2022-09-01T20:40:02.577Z,99005.19
2022-09-01T20:42:47.512Z,98993.91
2022-09-01T20:45:18.534Z,98984.53
2022-09-01T20:47:46.164Z,98990.53
2022-09-01T20:50:13.846Z,98995.56
2022-09-01T20:52:43.193Z,98991.88
2022-09-01T20:55:18.641Z,98990.34
2022-09-01T20:57:48.028Z,98999.06
2022-09-01T21:00:25.899Z,98994.72
2022-09-01T21:03:12.033Z,98993.22
2022-09-01T21:05:49.509Z,98993.63
2022-09-01T21:08:35.122Z,99000.88
2022-09-01T21:11:20.130Z,98995.31
2022-09-01T21:13:54.622Z,98994.00
2022-09-01T21:16:28.131Z,98994.00
2022-09-01T21:19:06.384Z,98999.66
2022-09-01T21:21:38.681Z,99001.06
2022-09-01T21:24:05.077Z,98991.88
2022-09-01T21:26:31.659Z,99000.94
2022-09-01T21:28:59.123Z,98997.41
2022-09-01T21:31:25.428Z,99001.59
2022-09-01T21:33:51.956Z,99001.09
2022-09-01T21:36:18.289Z,98994.66
2022-09-01T21:38:44.638Z,98994.00
2022-09-01T21:41:13.190Z,98989.47
2022-09-01T21:43:41.359Z,98989.81
2022-09-01T21:46:08.587Z,98992.63
2022-09-01T21:48:34.976Z,98987.03
2022-09-01T21:51:04.591Z,98985.50
2022-09-01T21:53:33.885Z,98989.66
2022-09-01T21:56:00.309Z,98992.81
2022-09-01T21:58:26.653Z,98989.59
2022-09-01T22:00:53.044Z,98994.56
2022-09-01T22:03:19.782Z,98986.97
2022-09-01T22:05:46.326Z,98990.66
2022-09-01T22:08:14.084Z,98980.78
2022-09-01T22:10:42.661Z,98985.88
2022-09-01T22:13:10.261Z,98981.88
2022-09-01T22:15:41.165Z,98984.63
2022-09-01T22:18:07.476Z,98989.66
2022-09-01T22:20:33.851Z,98984.94
2022-09-01T22:23:02.135Z,98981.31
2022-09-01T22:25:29.691Z,98984.00
2022-09-01T22:27:57.786Z,98983.25
2022-09-01T22:30:24.096Z,98979.94
2022-09-01T22:32:50.869Z,98976.94
2022-09-01T22:35:18.379Z,98983.16
2022-09-01T22:37:44.668Z,98978.00
2022-09-01T22:40:11.262Z,98982.41
2022-09-01T22:42:37.634Z,98981.34
2022-09-01T22:45:04.636Z,98986.53
2022-09-01T22:47:30.964Z,98978.03
2022-09-01T22:50:01.643Z,98975.16
2022-09-01T22:52:29.853Z,98980.84
2022-09-01T22:54:56.979Z,98975.16
2022-09-01T22:57:23.516Z,98977.09
2022-09-01T22:59:49.845Z,98975.50
2022-09-01T23:02:16.873Z,98980.13
2022-09-01T23:04:43.263Z,98971.25
2022-09-01T23:07:09.600Z,98976.09
2022-09-01T23:09:35.934Z,98974.94
2022-09-01T23:12:02.343Z,98977.00
2022-09-01T23:14:28.964Z,98975.59
2022-09-01T23:16:55.338Z,98973.69
2022-09-01T23:19:22.952Z,98977.56
2022-09-01T23:21:51.023Z,98973.28
2022-09-01T23:24:19.919Z,98967.28
2022-09-01T23:26:46.863Z,98973.38
2022-09-01T23:29:13.190Z,98969.09
2022-09-01T23:31:39.534Z,98964.97
2022-09-01T23:34:06.926Z,98979.56
2022-09-01T23:36:33.626Z,98966.16
2022-09-01T23:39:00.743Z,98969.00
2022-09-01T23:41:29.794Z,98958.00
2022-09-01T23:43:56.954Z,98962.59
2022-09-01T23:46:27.903Z,98959.19
2022-09-01T23:48:54.644Z,98963.41
2022-09-01T23:51:21.595Z,98954.50
2022-09-01T23:53:48.451Z,98961.28
2022-09-01T23:56:19.829Z,98963.19
2022-09-01T23:58:46.608Z,98957.66
